createdAt,value
2023-03-14T00:00:17.992Z,97513.72
2023-03-14T00:00:54.403Z,97507.91
2023-03-14T00:01:30.443Z,97519.16
2023-03-14T00:02:05.646Z,97504.31
2023-03-14T00:02:40.894Z,97489.88
2023-03-14T00:03:17.209Z,97505.88
2023-03-14T00:03:53.447Z,97493.06
2023-03-14T00:04:29.040Z,97491.47
2023-03-14T00:05:05.130Z,97498.06
2023-03-14T00:05:42.721Z,97498.84
2023-03-14T00:06:18.783Z,97491.81
2023-03-14T00:06:54.651Z,97489.88
2023-03-14T00:07:30.536Z,97502.72
2023-03-14T00:08:06.776Z,97497.28
2023-03-14T00:08:43.042Z,97500.78
2023-03-14T00:09:18.586Z,97512.47
2023-03-14T00:09:55.068Z,97500.44
2023-03-14T00:10:31.503Z,97494.19
2023-03-14T00:11:07.686Z,97497.72
2023-03-14T00:11:43.158Z,97496.94
2023-03-14T00:12:19.470Z,97494.53
2023-03-14T00:12:54.899Z,97493.41
2023-03-14T00:13:30.474Z,97511.69
2023-03-14T00:14:06.270Z,97499.19
2023-03-14T00:14:42.463Z,97502.72
2023-03-14T00:15:18.836Z,97502.72
2023-03-14T00:15:55.000Z,97500.78
2023-03-14T00:16:30.535Z,97505.00
2023-03-14T00:17:06.360Z,97491.03
2023-03-14T00:17:41.801Z,97498.84
2023-03-14T00:18:17.330Z,97502.38
2023-03-14T00:18:53.647Z,97498.84
2023-03-14T00:19:29.632Z,97498.06
2023-03-14T00:20:05.726Z,97492.25
2023-03-14T00:20:41.330Z,97488.31
2023-03-14T00:21:17.733Z,97479.34
2023-03-14T00:21:53.470Z,97471.16
2023-03-14T00:22:29.369Z,97477.41
2023-03-14T00:23:05.380Z,97482.06
2023-03-14T00:23:40.933Z,97479.78
2023-03-14T00:24:17.104Z,97482.50
2023-03-14T00:24:53.265Z,97472.75
2023-03-14T00:25:29.370Z,97473.88
2023-03-14T00:26:05.634Z,97480.91
2023-03-14T00:26:41.548Z,97482.50
2023-03-14T00:27:17.183Z,97478.63
2023-03-14T00:27:52.763Z,97474.69
2023-03-14T00:28:29.012Z,97479.34
2023-03-14T00:29:04.900Z,97498.84
2023-03-14T00:29:40.892Z,97487.50
2023-03-14T00:30:16.637Z,97494.09
2023-03-14T00:30:52.588Z,97483.19
2023-03-14T00:31:28.822Z,97501.84
2023-03-14T00:32:04.663Z,97488.66
2023-03-14T00:32:40.791Z,97490.22
2023-03-14T00:33:16.343Z,97496.03
2023-03-14T00:33:52.146Z,97488.66
2023-03-14T00:34:28.055Z,97496.38
2023-03-14T00:35:04.229Z,97497.97
2023-03-14T00:35:40.230Z,97492.53
2023-03-14T00:36:15.866Z,97496.38
2023-03-14T00:36:52.017Z,97485.13
2023-03-14T00:37:27.964Z,97491.38
2023-03-14T00:38:03.546Z,97491.03
2023-03-14T00:38:39.145Z,97500.34
2023-03-14T00:39:14.710Z,97500.69
2023-03-14T00:39:50.684Z,97494.09
2023-03-14T00:40:26.978Z,97501.84
2023-03-14T00:41:02.980Z,97497.97
2023-03-14T00:41:39.175Z,97497.88
2023-03-14T00:42:14.790Z,97507.19
2023-03-14T00:42:50.361Z,97510.34
2023-03-14T00:43:26.393Z,97500.25
2023-03-14T00:44:02.254Z,97517.38
2023-03-14T00:44:38.289Z,97513.88
2023-03-14T00:45:14.476Z,97522.03
2023-03-14T00:45:50.584Z,97524.78
2023-03-14T00:46:26.101Z,97526.69
2023-03-14T00:47:02.017Z,97516.50
2023-03-14T00:47:37.556Z,97516.59
2023-03-14T00:48:13.621Z,97522.84
2023-03-14T00:48:49.653Z,97518.88
2023-03-14T00:49:25.920Z,97508.78
2023-03-14T00:50:02.657Z,97508.78
2023-03-14T00:50:38.226Z,97504.91
2023-03-14T00:51:14.374Z,97506.84
2023-03-14T00:51:50.496Z,97491.28
2023-03-14T00:52:26.152Z,97490.94
2023-03-14T00:53:01.785Z,97490.13
2023-03-14T00:53:37.889Z,97498.31
2023-03-14T00:54:13.949Z,97493.22
2023-03-14T00:54:49.636Z,97485.38
2023-03-14T00:55:25.972Z,97503.66
2023-03-14T00:56:01.428Z,97491.63
2023-03-14T00:56:37.716Z,97490.50
2023-03-14T00:57:13.617Z,97493.91
2023-03-14T00:57:49.315Z,97496.28
2023-03-14T00:58:24.682Z,97490.75
2023-03-14T00:59:00.683Z,97483.81
2023-03-14T00:59:37.024Z,97500.16
2023-03-14T01:00:12.741Z,97500.94
2023-03-14T01:00:49.139Z,97497.53
2023-03-14T01:01:24.925Z,97493.22
2023-03-14T01:02:00.601Z,97480.72
2023-03-14T01:02:37.122Z,97482.31
2023-03-14T01:03:12.690Z,97485.75
2023-03-14T01:03:48.104Z,97488.13
2023-03-14T01:04:24.161Z,97487.75
2023-03-14T01:05:00.171Z,97473.34
2023-03-14T01:05:36.282Z,97470.63
2023-03-14T01:06:12.401Z,97479.94
2023-03-14T01:06:48.593Z,97485.03
2023-03-14T01:07:24.752Z,97489.25
2023-03-14T01:08:01.215Z,97485.75
2023-03-14T01:08:36.754Z,97486.19
2023-03-14T01:09:12.338Z,97486.97
2023-03-14T01:09:48.393Z,97480.72
2023-03-14T01:10:25.026Z,97482.31
2023-03-14T01:11:01.051Z,97473.00
2023-03-14T01:11:37.859Z,97475.72
2023-03-14T01:12:13.927Z,97458.94
2023-03-14T01:12:50.232Z,97464.38
2023-03-14T01:13:26.252Z,97453.47
2023-03-14T01:14:01.723Z,97477.22
2023-03-14T01:14:37.271Z,97474.50
2023-03-14T01:15:13.569Z,97475.28
2023-03-14T01:15:49.522Z,97476.06
2023-03-14T01:16:25.215Z,97468.25
2023-03-14T01:17:01.027Z,97479.94
2023-03-14T01:17:37.100Z,97470.63
2023-03-14T01:18:13.169Z,97469.38
2023-03-14T01:18:49.434Z,97483.44
2023-03-14T01:19:25.400Z,97475.28
2023-03-14T01:20:00.863Z,97476.06
2023-03-14T01:20:37.062Z,97494.81
2023-03-14T01:21:12.580Z,97484.25
2023-03-14T01:21:49.017Z,97485.75
2023-03-14T01:22:25.146Z,97474.50
2023-03-14T01:23:01.168Z,97484.94
2023-03-14T01:23:36.898Z,97470.97
2023-03-14T01:24:12.817Z,97484.59
2023-03-14T01:24:48.418Z,97476.41
2023-03-14T01:25:24.043Z,97475.28
2023-03-14T01:26:00.202Z,97470.97
2023-03-14T01:26:36.615Z,97464.38
2023-03-14T01:27:12.388Z,97470.63
2023-03-14T01:27:48.852Z,97462.44
2023-03-14T01:28:24.825Z,97469.47
2023-03-14T01:29:00.963Z,97469.84
2023-03-14T01:29:37.001Z,97465.63
2023-03-14T01:30:12.582Z,97466.75
2023-03-14T01:30:48.169Z,97465.97
2023-03-14T01:31:24.352Z,97470.97
2023-03-14T01:32:00.736Z,97471.41
2023-03-14T01:32:36.709Z,97475.28
2023-03-14T01:33:12.735Z,97476.88
2023-03-14T01:33:48.281Z,97479.94
2023-03-14T01:34:24.373Z,97477.47
2023-03-14T01:35:00.582Z,97481.44
2023-03-14T01:35:36.190Z,97495.06
2023-03-14T01:36:11.244Z,97503.66
2023-03-14T01:36:47.549Z,97516.50
2023-03-14T01:37:24.118Z,97533.63
2023-03-14T01:38:00.332Z,97548.41
2023-03-14T01:38:36.259Z,97550.09
2023-03-14T01:39:11.960Z,97547.38
2023-03-14T01:39:47.575Z,97550.09
2023-03-14T01:40:23.592Z,97566.00
2023-03-14T01:40:59.648Z,97560.53
2023-03-14T01:41:35.613Z,97548.50
2023-03-14T01:42:11.460Z,97567.69
2023-03-14T01:42:47.120Z,97563.81
2023-03-14T01:43:23.159Z,97565.28
2023-03-14T01:43:59.254Z,97544.97
2023-03-14T01:44:34.717Z,97529.09
2023-03-14T01:45:10.537Z,97536.81
2023-03-14T01:45:46.274Z,97539.97
2023-03-14T01:46:22.371Z,97552.81
2023-03-14T01:46:58.222Z,97541.47
2023-03-14T01:47:34.213Z,97544.97
2023-03-14T01:48:09.746Z,97540.78
2023-03-14T01:48:45.958Z,97553.59
2023-03-14T01:49:21.479Z,97551.56
2023-03-14T01:49:56.950Z,97548.50
2023-03-14T01:50:32.799Z,97562.91
2023-03-14T01:51:09.029Z,97553.94
2023-03-14T01:51:44.892Z,97543.75
2023-03-14T01:52:20.607Z,97539.09
2023-03-14T01:52:56.857Z,97532.06
2023-03-14T01:53:32.876Z,97527.84
2023-03-14T01:54:09.093Z,97524.78
2023-03-14T01:54:44.676Z,97515.00
2023-03-14T01:55:20.179Z,97506.84
2023-03-14T01:55:56.063Z,97509.56
2023-03-14T01:56:32.024Z,97517.72
2023-03-14T01:57:08.034Z,97508.41
2023-03-14T01:57:43.610Z,97511.50
2023-03-14T01:58:19.843Z,97511.16
2023-03-14T01:58:56.163Z,97518.97
2023-03-14T01:59:31.923Z,97520.91
2023-03-14T02:00:07.561Z,97529.53
2023-03-14T02:00:42.579Z,97518.97
2023-03-14T02:01:18.537Z,97507.28
2023-03-14T02:01:54.449Z,97508.53
2023-03-14T02:02:30.433Z,97511.59
2023-03-14T02:03:06.965Z,97506.13
2023-03-14T02:03:42.517Z,97505.00
2023-03-14T02:04:18.737Z,97512.81
2023-03-14T02:04:54.703Z,97498.06
2023-03-14T02:05:30.436Z,97504.66
2023-03-14T02:06:05.701Z,97515.22
2023-03-14T02:06:42.009Z,97500.34
2023-03-14T02:07:18.159Z,97498.75
2023-03-14T02:07:54.338Z,97501.84
2023-03-14T02:08:29.859Z,97512.03
2023-03-14T02:09:05.699Z,97492.53
2023-03-14T02:09:41.953Z,97494.09
2023-03-14T02:10:17.755Z,97492.06
2023-03-14T02:10:52.958Z,97490.94
2023-03-14T02:11:27.966Z,97486.63
2023-03-14T02:12:04.466Z,97488.56
2023-03-14T02:12:39.976Z,97485.94
2023-03-14T02:13:16.311Z,97488.66
2023-03-14T02:13:51.926Z,97483.91
2023-03-14T02:14:27.899Z,97478.44
2023-03-14T02:15:03.814Z,97482.66
2023-03-14T02:15:40.031Z,97490.50
2023-03-14T02:16:15.692Z,97490.94
2023-03-14T02:16:51.260Z,97483.91
2023-03-14T02:17:27.467Z,97486.63
2023-03-14T02:18:03.132Z,97483.09
2023-03-14T02:18:39.346Z,97486.19
2023-03-14T02:19:15.199Z,97487.66
2023-03-14T02:19:51.012Z,97487.31
2023-03-14T02:20:27.055Z,97491.63
2023-03-14T02:21:03.363Z,97491.63
2023-03-14T02:21:38.865Z,97485.47
2023-03-14T02:22:14.296Z,97486.19
2023-03-14T02:22:50.145Z,97490.84
2023-03-14T02:23:26.161Z,97492.41
2023-03-14T02:24:02.204Z,97485.03
2023-03-14T02:24:38.017Z,97495.94
2023-03-14T02:25:14.013Z,97490.50
2023-03-14T02:25:49.873Z,97489.69
2023-03-14T02:26:26.284Z,97496.28
2023-03-14T02:27:02.035Z,97493.56
2023-03-14T02:27:37.720Z,97482.31
2023-03-14T02:28:13.356Z,97485.03
2023-03-14T02:28:49.891Z,97497.06
2023-03-14T02:29:25.376Z,97488.47
2023-03-14T02:30:01.731Z,97491.19
2023-03-14T02:30:37.979Z,97494.69
2023-03-14T02:31:14.018Z,97493.22
2023-03-14T02:31:49.791Z,97491.63
2023-03-14T02:32:25.827Z,97494.34
2023-03-14T02:33:01.365Z,97488.91
2023-03-14T02:33:37.281Z,97496.28
2023-03-14T02:34:13.789Z,97490.03
2023-03-14T02:34:49.923Z,97492.78
2023-03-14T02:35:25.581Z,97496.19
2023-03-14T02:36:01.808Z,97498.22
2023-03-14T02:36:37.704Z,97495.84
2023-03-14T02:37:14.342Z,97491.19
2023-03-14T02:37:49.926Z,97481.09
2023-03-14T02:38:25.301Z,97489.25
2023-03-14T02:39:01.910Z,97486.19
2023-03-14T02:39:37.604Z,97491.63
2023-03-14T02:40:13.689Z,97486.53
2023-03-14T02:40:49.855Z,97479.50
2023-03-14T02:41:25.414Z,97479.16
2023-03-14T02:42:01.345Z,97483.00
2023-03-14T02:42:37.793Z,97471.66
2023-03-14T02:43:13.310Z,97474.84
2023-03-14T02:43:48.438Z,97476.41
2023-03-14T02:44:24.012Z,97483.44
2023-03-14T02:45:00.285Z,97475.28
2023-03-14T02:45:36.804Z,97479.94
2023-03-14T02:46:12.809Z,97475.63
2023-03-14T02:46:48.819Z,97480.72
2023-03-14T02:47:25.003Z,97488.81
2023-03-14T02:48:00.855Z,97478.00
2023-03-14T02:48:37.311Z,97476.78
2023-03-14T02:49:12.754Z,97482.22
2023-03-14T02:49:48.754Z,97477.56
2023-03-14T02:50:25.574Z,97477.56
2023-03-14T02:51:01.358Z,97474.84
2023-03-14T02:51:37.826Z,97485.75
2023-03-14T02:52:13.755Z,97476.41
2023-03-14T02:52:49.457Z,97472.91
2023-03-14T02:53:25.711Z,97471.75
2023-03-14T02:54:01.542Z,97480.38
2023-03-14T02:54:37.152Z,97470.97
2023-03-14T02:55:12.652Z,97478.00
2023-03-14T02:55:49.168Z,97480.28
2023-03-14T02:56:24.685Z,97473.69
2023-03-14T02:57:01.074Z,97481.09
2023-03-14T02:57:37.293Z,97487.31
2023-03-14T02:58:13.076Z,97469.84
2023-03-14T02:58:49.330Z,97469.84
2023-03-14T02:59:24.695Z,97473.59
2023-03-14T02:59:59.371Z,97473.69
2023-03-14T03:00:35.056Z,97470.19
2023-03-14T03:01:11.064Z,97467.09
2023-03-14T03:01:46.750Z,97465.97
2023-03-14T03:02:22.606Z,97467.47
2023-03-14T03:02:58.716Z,97460.41
2023-03-14T03:03:34.900Z,97472.47
2023-03-14T03:04:11.010Z,97472.13
2023-03-14T03:04:46.698Z,97470.97
2023-03-14T03:05:22.526Z,97467.47
2023-03-14T03:05:57.694Z,97471.31
2023-03-14T03:06:33.827Z,97463.59
2023-03-14T03:07:09.867Z,97471.75
2023-03-14T03:07:45.796Z,97469.38
2023-03-14T03:08:21.978Z,97463.94
2023-03-14T03:08:57.520Z,97471.31
2023-03-14T03:09:34.070Z,97462.81
2023-03-14T03:10:09.850Z,97464.38
2023-03-14T03:10:45.461Z,97472.56
2023-03-14T03:11:21.194Z,97469.84
2023-03-14T03:11:57.668Z,97476.88
2023-03-14T03:12:33.732Z,97467.47
2023-03-14T03:13:09.730Z,97467.09
2023-03-14T03:13:46.295Z,97471.41
2023-03-14T03:14:22.318Z,97464.38
2023-03-14T03:14:58.202Z,97457.00
2023-03-14T03:15:33.753Z,97460.06
2023-03-14T03:16:09.608Z,97462.81
2023-03-14T03:16:44.847Z,97460.41
2023-03-14T03:17:20.990Z,97451.91
2023-03-14T03:17:56.886Z,97446.44
2023-03-14T03:18:33.393Z,97443.72
2023-03-14T03:19:09.432Z,97451.91
2023-03-14T03:19:45.708Z,97439.84
2023-03-14T03:20:21.477Z,97449.63
2023-03-14T03:20:57.062Z,97451.91
2023-03-14T03:21:33.121Z,97438.97
2023-03-14T03:22:08.215Z,97444.06
2023-03-14T03:22:44.430Z,97444.53
2023-03-14T03:23:20.690Z,97442.16
2023-03-14T03:23:56.162Z,97441.44
2023-03-14T03:24:32.319Z,97436.34
2023-03-14T03:25:08.230Z,97441.78
2023-03-14T03:25:44.078Z,97444.53
2023-03-14T03:26:20.436Z,97442.16
2023-03-14T03:26:56.365Z,97449.53
2023-03-14T03:27:31.414Z,97444.06
2023-03-14T03:28:07.819Z,97439.50
2023-03-14T03:28:43.469Z,97443.03
2023-03-14T03:29:19.252Z,97437.56
2023-03-14T03:29:55.494Z,97438.72
2023-03-14T03:30:31.671Z,97444.97
2023-03-14T03:31:07.684Z,97441.44
2023-03-14T03:31:43.734Z,97437.13
2023-03-14T03:32:19.422Z,97442.59
2023-03-14T03:32:55.191Z,97432.47
2023-03-14T03:33:30.942Z,97441.00
2023-03-14T03:34:06.972Z,97439.50
2023-03-14T03:34:42.737Z,97436.78
2023-03-14T03:35:18.001Z,97445.41
2023-03-14T03:35:53.626Z,97437.22
2023-03-14T03:36:29.497Z,97445.06
2023-03-14T03:37:05.179Z,97435.75
2023-03-14T03:37:41.465Z,97434.84
2023-03-14T03:38:17.087Z,97439.50
2023-03-14T03:38:53.618Z,97441.09
2023-03-14T03:39:29.572Z,97437.56
2023-03-14T03:40:05.596Z,97438.38
2023-03-14T03:40:41.370Z,97438.03
2023-03-14T03:41:17.041Z,97434.84
2023-03-14T03:41:52.620Z,97434.06
2023-03-14T03:42:28.853Z,97429.75
2023-03-14T03:43:04.973Z,97435.56
2023-03-14T03:43:40.940Z,97441.09
2023-03-14T03:44:16.850Z,97430.19
2023-03-14T03:44:52.948Z,97430.19
2023-03-14T03:45:28.725Z,97430.19
2023-03-14T03:46:04.575Z,97426.34
2023-03-14T03:46:40.194Z,97425.53
2023-03-14T03:47:16.850Z,97432.91
2023-03-14T03:47:52.431Z,97428.25
2023-03-14T03:48:28.737Z,97427.13
2023-03-14T03:49:04.782Z,97415.88
2023-03-14T03:49:40.758Z,97412.34
2023-03-14T03:50:16.595Z,97419.31
2023-03-14T03:50:52.286Z,97413.50
2023-03-14T03:51:27.809Z,97411.91
2023-03-14T03:52:03.656Z,97424.84
2023-03-14T03:52:39.761Z,97417.81
2023-03-14T03:53:17.927Z,97417.81
2023-03-14T03:53:58.819Z,97423.59
2023-03-14T03:54:34.836Z,97413.06
2023-03-14T03:55:10.824Z,97415.78
2023-03-14T03:55:46.505Z,97416.56
2023-03-14T03:56:22.354Z,97418.50
2023-03-14T03:56:57.520Z,97410.34
2023-03-14T03:57:33.791Z,97405.31
2023-03-14T03:58:09.374Z,97409.63
2023-03-14T03:58:45.570Z,97402.94
2023-03-14T03:59:21.233Z,97405.31
2023-03-14T03:59:57.651Z,97417.72
2023-03-14T04:00:33.105Z,97417.38
2023-03-14T04:01:08.425Z,97420.09
2023-03-14T04:01:44.654Z,97413.84
2023-03-14T04:02:20.755Z,97413.06
2023-03-14T04:02:56.853Z,97418.06
2023-03-14T04:03:32.763Z,97420.88
2023-03-14T04:04:08.570Z,97411.13
2023-03-14T04:04:44.625Z,97418.50
2023-03-14T04:05:20.606Z,97427.91
2023-03-14T04:05:56.165Z,97433.38
2023-03-14T04:06:31.772Z,97416.22
2023-03-14T04:07:07.457Z,97424.75
2023-03-14T04:07:43.394Z,97431.34
2023-03-14T04:08:19.347Z,97429.41
2023-03-14T04:08:54.880Z,97425.44
2023-03-14T04:09:31.238Z,97438.72
2023-03-14T04:10:07.480Z,97420.09
2023-03-14T04:10:42.716Z,97431.00
2023-03-14T04:11:18.279Z,97436.78
2023-03-14T04:11:53.933Z,97418.50
2023-03-14T04:12:29.711Z,97426.69
2023-03-14T04:13:06.117Z,97443.47
2023-03-14T04:13:41.764Z,97432.56
2023-03-14T04:14:17.857Z,97432.56
2023-03-14T04:14:53.465Z,97434.16
2023-03-14T04:15:29.299Z,97440.75
2023-03-14T04:16:05.588Z,97447.00
2023-03-14T04:16:40.838Z,97438.81
2023-03-14T04:17:17.095Z,97441.88
2023-03-14T04:17:53.049Z,97439.59
2023-03-14T04:18:29.309Z,97435.75
2023-03-14T04:19:05.215Z,97436.44
2023-03-14T04:19:41.827Z,97432.56
2023-03-14T04:20:17.494Z,97438.03
2023-03-14T04:20:53.509Z,97445.75
2023-03-14T04:21:28.792Z,97446.53
2023-03-14T04:22:04.993Z,97442.69
2023-03-14T04:22:42.826Z,97440.75
2023-03-14T04:23:18.824Z,97442.34
2023-03-14T04:23:55.420Z,97443.03
2023-03-14T04:24:31.036Z,97449.63
2023-03-14T04:25:07.587Z,97443.03
2023-03-14T04:25:43.254Z,97447.00
2023-03-14T04:26:19.440Z,97453.94
2023-03-14T04:26:55.026Z,97439.50
2023-03-14T04:27:30.917Z,97446.53
2023-03-14T04:28:06.831Z,97442.69
2023-03-14T04:28:42.182Z,97445.41
2023-03-14T04:29:18.565Z,97452.44
2023-03-14T04:29:54.764Z,97437.22
2023-03-14T04:30:30.256Z,97436.88
2023-03-14T04:31:06.496Z,97435.28
2023-03-14T04:31:42.189Z,97435.75
2023-03-14T04:32:17.831Z,97433.38
2023-03-14T04:32:53.720Z,97438.03
2023-03-14T04:33:29.424Z,97436.44
2023-03-14T04:34:05.507Z,97443.13
2023-03-14T04:34:41.944Z,97431.44
2023-03-14T04:35:17.546Z,97434.16
2023-03-14T04:35:53.584Z,97434.94
2023-03-14T04:36:29.748Z,97427.56
2023-03-14T04:37:05.989Z,97430.28
2023-03-14T04:37:41.671Z,97431.78
2023-03-14T04:38:17.855Z,97427.91
2023-03-14T04:38:53.856Z,97429.84
2023-03-14T04:39:29.370Z,97426.34
2023-03-14T04:40:05.610Z,97430.28
2023-03-14T04:40:42.035Z,97425.19
2023-03-14T04:41:17.729Z,97416.22
2023-03-14T04:42:00.941Z,97419.38
2023-03-14T04:42:36.403Z,97418.25
2023-03-14T04:43:11.760Z,97412.78
2023-03-14T04:43:47.948Z,97425.97
2023-03-14T04:44:23.896Z,97413.94
2023-03-14T04:44:59.829Z,97423.25
2023-03-14T04:45:35.739Z,97413.94
2023-03-14T04:46:11.080Z,97413.25
2023-03-14T04:46:46.409Z,97409.28
2023-03-14T04:47:22.084Z,97403.03
2023-03-14T04:47:58.282Z,97404.63
2023-03-14T04:48:33.283Z,97400.75
2023-03-14T04:49:09.690Z,97396.44
2023-03-14T04:49:45.485Z,97396.09
2023-03-14T04:50:21.441Z,97394.50
2023-03-14T04:50:57.389Z,97402.69
2023-03-14T04:51:33.730Z,97388.28
2023-03-14T04:52:09.675Z,97384.41
2023-03-14T04:52:45.506Z,97379.75
2023-03-14T04:53:21.462Z,97391.44
2023-03-14T04:53:56.950Z,97387.56
2023-03-14T04:54:32.773Z,97389.06
2023-03-14T04:55:08.942Z,97381.31
2023-03-14T04:55:44.874Z,97386.44
2023-03-14T04:56:20.827Z,97390.22
2023-03-14T04:56:57.008Z,97387.47
2023-03-14T04:57:34.215Z,97378.97
2023-03-14T04:58:10.843Z,97378.97
2023-03-14T04:58:47.129Z,97386.78
2023-03-14T04:59:22.780Z,97387.56
2023-03-14T04:59:58.717Z,97378.25
2023-03-14T05:00:34.800Z,97385.28
2023-03-14T05:01:11.111Z,97382.13
2023-03-14T05:01:47.330Z,97386.44
2023-03-14T05:02:24.394Z,97384.84
2023-03-14T05:03:00.541Z,97383.69
2023-03-14T05:03:36.538Z,97381.31
2023-03-14T05:04:12.205Z,97381.78
2023-03-14T05:04:47.636Z,97378.25
2023-03-14T05:05:23.683Z,97382.13
2023-03-14T05:06:00.657Z,97383.69
2023-03-14T05:06:36.930Z,97373.16
2023-03-14T05:07:13.973Z,97380.53
2023-03-14T05:07:50.321Z,97376.66
2023-03-14T05:08:25.975Z,97368.50
2023-03-14T05:09:02.131Z,97367.34
2023-03-14T05:09:37.478Z,97371.22
2023-03-14T05:10:12.752Z,97372.00
2023-03-14T05:10:49.136Z,97372.00
2023-03-14T05:11:25.225Z,97364.63
2023-03-14T05:12:00.754Z,97362.69
2023-03-14T05:12:36.958Z,97359.19
2023-03-14T05:13:12.878Z,97361.13
2023-03-14T05:13:48.902Z,97358.03
2023-03-14T05:14:24.553Z,97351.44
2023-03-14T05:15:00.519Z,97356.91
2023-03-14T05:15:36.107Z,97346.78
2023-03-14T05:16:11.917Z,97353.38
2023-03-14T05:16:48.040Z,97347.94
2023-03-14T05:17:23.828Z,97351.78
2023-03-14T05:17:59.917Z,97347.13
2023-03-14T05:18:36.427Z,97340.53
2023-03-14T05:19:12.273Z,97339.41
2023-03-14T05:19:47.813Z,97340.53
2023-03-14T05:20:23.855Z,97339.41
2023-03-14T05:20:59.543Z,97336.94
2023-03-14T05:21:35.211Z,97338.53
2023-03-14T05:22:11.894Z,97338.53
2023-03-14T05:22:47.670Z,97338.97
2023-03-14T05:23:23.238Z,97338.53
2023-03-14T05:23:59.461Z,97335.44
2023-03-14T05:24:35.458Z,97343.97
2023-03-14T05:25:11.217Z,97346.34
2023-03-14T05:25:47.090Z,97343.25
2023-03-14T05:26:22.843Z,97348.28
2023-03-14T05:26:58.836Z,97342.38
2023-03-14T05:27:35.076Z,97352.16
2023-03-14T05:28:11.193Z,97340.47
2023-03-14T05:28:46.934Z,97347.41
2023-03-14T05:29:23.311Z,97340.00
2023-03-14T05:29:59.438Z,97344.31
2023-03-14T05:30:35.372Z,97343.53
2023-03-14T05:31:11.196Z,97357.16
2023-03-14T05:31:46.699Z,97338.53
2023-03-14T05:32:22.822Z,97336.16
2023-03-14T05:32:59.080Z,97332.97
2023-03-14T05:33:35.235Z,97333.78
2023-03-14T05:34:11.590Z,97332.63
2023-03-14T05:34:47.582Z,97336.50
2023-03-14T05:35:23.294Z,97331.41
2023-03-14T05:35:59.851Z,97325.25
2023-03-14T05:36:35.384Z,97333.06
2023-03-14T05:37:10.823Z,97326.81
2023-03-14T05:37:46.750Z,97333.06
2023-03-14T05:38:23.175Z,97342.38
2023-03-14T05:38:59.170Z,97331.84
2023-03-14T05:39:34.892Z,97338.88
2023-03-14T05:40:11.641Z,97332.28
2023-03-14T05:40:47.272Z,97322.97
2023-03-14T05:41:23.527Z,97327.63
2023-03-14T05:41:59.122Z,97342.81
2023-03-14T05:42:34.812Z,97335.00
2023-03-14T05:43:11.182Z,97338.53
2023-03-14T05:43:47.735Z,97323.75
2023-03-14T05:44:21.610Z,97329.91
2023-03-14T05:44:55.242Z,97330.69
2023-03-14T05:45:33.835Z,97327.19
2023-03-14T05:46:09.800Z,97331.84
2023-03-14T05:46:45.964Z,97336.16
2023-03-14T05:47:21.829Z,97327.19
2023-03-14T05:47:57.654Z,97329.47
2023-03-14T05:48:33.796Z,97330.69
2023-03-14T05:49:09.872Z,97327.97
2023-03-14T05:49:45.700Z,97333.44
2023-03-14T05:50:21.885Z,97329.91
2023-03-14T05:50:57.545Z,97330.69
2023-03-14T05:51:33.784Z,97327.19
2023-03-14T05:52:09.463Z,97327.88
2023-03-14T05:52:44.885Z,97331.31
2023-03-14T05:53:21.338Z,97331.41
2023-03-14T05:53:57.149Z,97335.72
2023-03-14T05:54:33.183Z,97330.69
2023-03-14T05:55:08.858Z,97330.25
2023-03-14T05:55:45.287Z,97332.63
2023-03-14T05:56:21.588Z,97332.97
2023-03-14T05:56:57.488Z,97327.53
2023-03-14T05:57:33.237Z,97323.66
2023-03-14T05:58:08.821Z,97323.31
2023-03-14T05:58:45.579Z,97323.75
2023-03-14T05:59:21.650Z,97326.81
2023-03-14T05:59:58.227Z,97335.34
2023-03-14T06:00:33.865Z,97326.03
2023-03-14T06:01:09.732Z,97334.56
2023-03-14T06:01:46.070Z,97341.94
2023-03-14T06:02:22.104Z,97329.13
2023-03-14T06:02:57.682Z,97326.41
2023-03-14T06:03:33.396Z,97338.09
2023-03-14T06:04:09.107Z,97335.72
2023-03-14T06:04:45.905Z,97336.50
2023-03-14T06:05:22.107Z,97334.56
2023-03-14T06:05:58.536Z,97331.06
2023-03-14T06:06:35.122Z,97331.06
2023-03-14T06:07:11.628Z,97336.94
2023-03-14T06:07:47.389Z,97329.91
2023-03-14T06:08:23.116Z,97334.91
2023-03-14T06:08:58.416Z,97325.94
2023-03-14T06:09:34.335Z,97332.19
2023-03-14T06:10:10.737Z,97326.75
2023-03-14T06:10:46.676Z,97320.06
2023-03-14T06:11:22.896Z,97324.38
2023-03-14T06:11:58.401Z,97325.16
2023-03-14T06:12:34.803Z,97326.75
2023-03-14T06:13:10.672Z,97322.09
2023-03-14T06:13:46.492Z,97311.63
2023-03-14T06:14:22.014Z,97348.97
2023-03-14T06:14:57.734Z,97345.47
2023-03-14T06:15:33.863Z,97322.88
2023-03-14T06:16:10.356Z,97325.88
2023-03-14T06:16:46.551Z,97323.22
2023-03-14T06:17:22.106Z,97335.63
2023-03-14T06:17:58.396Z,97326.66
2023-03-14T06:18:34.893Z,97319.72
2023-03-14T06:19:10.397Z,97334.47
2023-03-14T06:19:46.119Z,97329.03
2023-03-14T06:20:22.053Z,97336.78
2023-03-14T06:20:57.474Z,97329.75
2023-03-14T06:21:33.647Z,97328.16
2023-03-14T06:22:09.877Z,97322.00
2023-03-14T06:22:46.116Z,97316.63
2023-03-14T06:23:22.210Z,97327.44
2023-03-14T06:23:57.912Z,97321.66
2023-03-14T06:24:33.913Z,97318.91
2023-03-14T06:25:09.586Z,97318.13
2023-03-14T06:25:46.057Z,97320.78
2023-03-14T06:26:23.570Z,97316.56
2023-03-14T06:26:59.162Z,97313.81
2023-03-14T06:27:35.455Z,97321.66
2023-03-14T06:28:11.340Z,97317.44
2023-03-14T06:28:47.506Z,97327.44
2023-03-14T06:29:23.087Z,97319.28
2023-03-14T06:29:59.016Z,97332.91
2023-03-14T06:30:34.709Z,97315.06
2023-03-14T06:31:11.584Z,97315.75
2023-03-14T06:31:47.160Z,97327.44
2023-03-14T06:32:23.443Z,97311.00
2023-03-14T06:32:59.356Z,97307.94
2023-03-14T06:33:35.632Z,97313.81
2023-03-14T06:34:11.823Z,97318.91
2023-03-14T06:34:47.490Z,97318.84
2023-03-14T06:35:23.558Z,97317.69
2023-03-14T06:35:58.974Z,97323.16
2023-03-14T06:36:34.561Z,97315.31
2023-03-14T06:37:11.086Z,97319.88
2023-03-14T06:37:47.077Z,97330.44
2023-03-14T06:38:22.736Z,97317.25
2023-03-14T06:38:58.854Z,97326.22
2023-03-14T06:39:35.383Z,97322.34
2023-03-14T06:40:11.633Z,97321.22
2023-03-14T06:40:46.981Z,97325.06
2023-03-14T06:41:22.708Z,97325.06
2023-03-14T06:41:58.759Z,97315.31
2023-03-14T06:42:34.732Z,97326.56
2023-03-14T06:43:10.991Z,97327.38
2023-03-14T06:43:47.356Z,97337.47
2023-03-14T06:44:23.137Z,97321.56
2023-03-14T06:44:59.118Z,97320.78
2023-03-14T06:45:35.104Z,97318.03
2023-03-14T06:46:10.494Z,97324.28
2023-03-14T06:46:46.146Z,97317.69
2023-03-14T06:47:21.943Z,97339.50
2023-03-14T06:47:58.557Z,97335.19
2023-03-14T06:48:34.623Z,97318.03
2023-03-14T06:49:10.336Z,97318.03
2023-03-14T06:49:47.214Z,97325.44
2023-03-14T06:50:23.784Z,97322.34
2023-03-14T06:51:00.149Z,97322.72
2023-03-14T06:51:35.706Z,97316.13
2023-03-14T06:52:11.199Z,97327.00
2023-03-14T06:52:47.976Z,97328.50
2023-03-14T06:53:23.738Z,97321.91
2023-03-14T06:54:00.065Z,97321.91
2023-03-14T06:54:35.868Z,97319.53
2023-03-14T06:55:11.571Z,97312.06
2023-03-14T06:55:47.802Z,97329.91
2023-03-14T06:56:23.840Z,97320.25
2023-03-14T06:56:59.637Z,97319.88
2023-03-14T06:57:34.842Z,97326.56
2023-03-14T06:58:11.054Z,97324.28
2023-03-14T06:58:49.680Z,97316.91
2023-03-14T06:59:25.688Z,97325.88
2023-03-14T07:00:01.320Z,97329.75
2023-03-14T07:00:37.336Z,97325.00
2023-03-14T07:01:13.241Z,97322.25
2023-03-14T07:01:49.022Z,97327.72
2023-03-14T07:02:35.941Z,97321.91